Lakeland Linder Regional Airport
KLAL : now visible

Airfield :











YOU CAN JOIN US ON...

 
LOGIN :

Register | Disclaimer

   EN    FR    IT 

 









Legend :    VFR   Marginal VFR   IFR   Intensive IFR   Very Intensive IFR
Visi :
Ceiling :
>= 8 km
>= 3000ft
5 to 8 km
1000 to 3000 ft
1500m to 5 km
500 to 1000 ft
800 to 1500m
200 to 500 ft
< 800m
< 200 ft
Symbols :   Thunderstorms  Fog  Heavy snow  Heavy precipitations  Wind > 20 kt






- Airport Elevation : 142 ft


KLAL - Lakeland Linder Regional

CURRENT METAR :
  • 301135Z AUTO 00000KT 10SM CLR 16/16 A3019 RMK AO2 T01640164

EXPIRED METARs :
  • 301115Z AUTO 00000KT 10SM CLR 17/17 A3019 RMK AO2 T01650165
  • 301055Z AUTO 00000KT 10SM SCT019 16/16 A3018 RMK AO2 T01640164
  • 301035Z AUTO 00000KT 7SM SCT019 16/16 A3018 RMK AO2 T01630160
  • 301015Z AUTO 00000KT 10SM CLR 17/17 A3018 RMK AO2 T01700166
  • 300955Z AUTO 00000KT 10SM CLR 17/17 A3017 RMK AO2 T01680165
  • 300935Z AUTO 00000KT 10SM CLR 17/16 A3017 RMK AO2 T01650164
  • 300915Z AUTO 10003KT 7SM CLR 16/16 A3017 RMK AO2 T01620155
  • 300855Z AUTO 09003KT 10SM CLR 17/16 A3017 RMK AO2 T01700160

TAF KLAL
Valid from the 30 at 09:00 until the 31 at 06:00 UTC


300910Z 3009/3106 VRB03KT P6SM FEW250
FM301100 VRB03KT 4SM BR SCT008 SCT250
TEMPO 3011/3013 2SM BR BKN008
FM301400 17005KT P6SM FEW025 SCT250
FM302000 24006KT P6SM FEW050 SCT250
FM310400 VRB02KT P6SM SCT250 AMD NOT SKED TIL 301200
KZMA FIR / North America



MET'MAP, your aeronautical weather chart ! - Copyright ORBIFLY December 2007 - Disclaimer

ORBIFLY MET'MAP TEAM :

Programming & Development : Alexandra Zaïnal
Original concept : Baudouin d'Aumeries
Technical & hardware support : Manuel Goepfert
Assistance : Marc-Olivier Méhu




SOURCES & CREDITS :

   NOAA       Earth
Advisory